createdAt,value
2022-12-13T00:01:58.779Z,-1.20
2022-12-13T00:04:26.826Z,-1.20
2022-12-13T00:06:54.574Z,-1.20
2022-12-13T00:09:22.753Z,-1.20
2022-12-13T00:11:50.688Z,-1.20
2022-12-13T00:14:18.513Z,-1.22
2022-12-13T00:16:48.119Z,-1.24
2022-12-13T00:19:16.998Z,-1.22
2022-12-13T00:21:44.865Z,-1.30
2022-12-13T00:24:12.701Z,-1.30
2022-12-13T00:26:40.449Z,-1.30
2022-12-13T00:29:09.645Z,-1.30
2022-12-13T00:34:25.475Z,-1.30
2022-12-13T00:36:54.767Z,-1.30
2022-12-13T00:39:22.754Z,-1.30
2022-12-13T00:41:50.614Z,-1.30
2022-12-13T00:44:19.904Z,-1.30
2022-12-13T00:46:47.906Z,-1.30
2022-12-13T00:49:15.844Z,-1.30
2022-12-13T00:51:44.122Z,-1.30
2022-12-13T00:54:11.880Z,-1.30
2022-12-13T00:56:39.641Z,-1.30
2022-12-13T00:59:07.600Z,-1.30
2022-12-13T01:01:36.550Z,-1.38
2022-12-13T01:04:05.255Z,-1.40
2022-12-13T01:06:46.147Z,-1.40
2022-12-13T01:09:22.743Z,-1.40
2022-12-13T01:11:50.716Z,-1.40
2022-12-13T01:14:18.860Z,-1.40
2022-12-13T01:16:46.699Z,-1.40
2022-12-13T01:19:14.511Z,-1.40
2022-12-13T01:21:42.407Z,-1.40
2022-12-13T01:24:10.168Z,-1.40
2022-12-13T01:26:38.556Z,-1.40
2022-12-13T01:29:06.311Z,-1.48
2022-12-13T01:31:34.115Z,-1.50
2022-12-13T01:34:10.542Z,-1.50
2022-12-13T01:36:40.971Z,-1.50
2022-12-13T01:39:14.599Z,-1.50
2022-12-13T01:41:44.841Z,-1.50
2022-12-13T01:44:58.546Z,-1.50
2022-12-13T01:47:57.204Z,-1.60
2022-12-13T01:50:31.972Z,-1.60
2022-12-13T01:53:00.986Z,-1.60
2022-12-13T01:55:31.382Z,-1.60
2022-12-13T01:58:01.044Z,-1.60
2022-12-13T02:00:28.901Z,-1.60
2022-12-13T02:02:58.168Z,-1.64
2022-12-13T02:05:39.300Z,-1.68
2022-12-13T02:08:09.240Z,-1.70
2022-12-13T02:10:37.069Z,-1.70
2022-12-13T02:13:06.021Z,-1.70
2022-12-13T02:15:58.700Z,-1.70
2022-12-13T02:18:46.469Z,-1.70
2022-12-13T02:21:33.226Z,-1.80
2022-12-13T02:24:42.687Z,-1.80
2022-12-13T02:27:16.937Z,-1.80
2022-12-13T02:30:22.851Z,-1.80
2022-12-13T02:32:57.480Z,-1.80
2022-12-13T02:35:40.456Z,-1.80
2022-12-13T02:38:26.730Z,-1.80
2022-12-13T02:41:05.382Z,-1.86
2022-12-13T02:43:45.399Z,-1.88
2022-12-13T02:46:17.195Z,-1.90
2022-12-13T02:48:45.056Z,-1.90
2022-12-13T02:51:13.567Z,-1.90
2022-12-13T02:53:42.484Z,-1.90
2022-12-13T02:56:10.310Z,-1.90
2022-12-13T02:58:46.204Z,-1.90
2022-12-13T03:01:42.584Z,-1.90
2022-12-13T03:04:20.090Z,-1.90
2022-12-13T03:07:17.006Z,-1.90
2022-12-13T03:09:58.518Z,-1.90
2022-12-13T03:12:56.159Z,-1.90
2022-12-13T03:15:37.190Z,-1.90
2022-12-13T03:18:18.164Z,-1.90
2022-12-13T03:20:56.155Z,-1.90
2022-12-13T03:23:24.271Z,-1.90
2022-12-13T03:26:21.424Z,-1.90
2022-12-13T03:28:49.292Z,-1.90
2022-12-13T03:31:18.044Z,-1.90
2022-12-13T03:33:46.086Z,-1.90
2022-12-13T03:36:15.162Z,-1.90
2022-12-13T03:38:43.017Z,-1.90
2022-12-13T03:41:13.484Z,-1.90
2022-12-13T03:43:41.921Z,-1.90
2022-12-13T03:46:10.061Z,-1.92
2022-12-13T03:48:37.976Z,-2.00
2022-12-13T03:51:05.943Z,-2.00
2022-12-13T03:53:34.617Z,-2.00
2022-12-13T03:56:04.842Z,-2.00
2022-12-13T03:58:36.370Z,-2.00
2022-12-13T04:01:07.432Z,-2.00
2022-12-13T04:03:36.767Z,-2.00
2022-12-13T04:06:04.853Z,-2.02
2022-12-13T04:08:33.564Z,-2.00
2022-12-13T04:11:21.849Z,-2.00
2022-12-13T04:13:49.710Z,-2.02
2022-12-13T04:16:17.690Z,-2.06
2022-12-13T04:18:45.485Z,-2.10
2022-12-13T04:21:13.312Z,-2.10
2022-12-13T04:23:41.055Z,-2.10
2022-12-13T04:26:10.481Z,-2.10
2022-12-13T04:28:38.347Z,-2.10
2022-12-13T04:31:06.258Z,-2.10
2022-12-13T04:33:34.508Z,-2.10
2022-12-13T04:36:02.547Z,-2.10
2022-12-13T04:38:30.300Z,-2.10
2022-12-13T04:41:09.115Z,-2.10
2022-12-13T04:43:36.949Z,-2.10
2022-12-13T04:46:04.936Z,-2.10
2022-12-13T04:48:34.565Z,-2.10
2022-12-13T04:51:02.340Z,-2.10
2022-12-13T04:53:30.212Z,-2.10
2022-12-13T04:55:58.524Z,-2.10
2022-12-13T04:58:27.198Z,-2.10
2022-12-13T05:00:55.111Z,-2.20
2022-12-13T05:03:23.195Z,-2.18
2022-12-13T05:05:50.942Z,-2.20
2022-12-13T05:08:18.909Z,-2.20
2022-12-13T05:10:46.730Z,-2.20
2022-12-13T05:13:14.501Z,-2.20
2022-12-13T05:15:42.294Z,-2.20
2022-12-13T05:18:11.004Z,-2.28
2022-12-13T05:20:39.653Z,-2.30
2022-12-13T05:23:07.705Z,-2.30
2022-12-13T05:25:36.898Z,-2.30
2022-12-13T05:28:08.839Z,-2.30
2022-12-13T05:30:59.178Z,-2.34
2022-12-13T05:33:27.164Z,-2.40
2022-12-13T05:35:59.971Z,-2.40
2022-12-13T05:38:29.020Z,-2.40
2022-12-13T05:40:57.442Z,-2.40
2022-12-13T05:43:42.168Z,-2.40
2022-12-13T05:46:12.889Z,-2.40
2022-12-13T05:48:41.352Z,-2.40
2022-12-13T05:51:11.822Z,-2.40
2022-12-13T05:53:41.278Z,-2.40
2022-12-13T05:56:10.261Z,-2.40
2022-12-13T05:58:39.553Z,-2.40
2022-12-13T06:01:12.959Z,-2.40
2022-12-13T06:03:41.755Z,-2.40
2022-12-13T06:06:10.945Z,-2.40
2022-12-13T06:08:39.421Z,-2.42
2022-12-13T06:11:10.901Z,-2.48
2022-12-13T06:13:42.359Z,-2.48
2022-12-13T06:16:22.690Z,-2.44
2022-12-13T06:18:59.461Z,-2.46
2022-12-13T06:21:41.582Z,-2.50
2022-12-13T06:24:11.512Z,-2.50
2022-12-13T06:26:39.323Z,-2.50
2022-12-13T06:29:07.051Z,-2.50
2022-12-13T06:31:34.722Z,-2.54
2022-12-13T06:37:28.005Z,-2.62
2022-12-13T06:39:55.737Z,-2.60
2022-12-13T06:42:23.553Z,-2.62
2022-12-13T06:44:55.746Z,-2.68
2022-12-13T06:47:31.245Z,-2.70
2022-12-13T06:50:04.965Z,-2.70
2022-12-13T06:52:34.152Z,-2.70
2022-12-13T06:55:02.584Z,-2.70
2022-12-13T06:57:33.889Z,-2.70
2022-12-13T07:00:05.215Z,-2.70
2022-12-13T07:02:33.172Z,-2.70
2022-12-13T07:05:01.986Z,-2.70
2022-12-13T07:07:29.915Z,-2.70
2022-12-13T07:09:57.692Z,-2.70
2022-12-13T07:12:28.350Z,-2.70
2022-12-13T07:14:56.236Z,-2.62
2022-12-13T07:17:32.546Z,-2.60
2022-12-13T07:20:08.400Z,-2.52
2022-12-13T07:22:44.879Z,-2.50
2022-12-13T07:25:27.665Z,-2.40
2022-12-13T07:28:03.112Z,-2.40
2022-12-13T07:30:41.352Z,-2.30
2022-12-13T07:33:10.257Z,-2.28
2022-12-13T07:35:38.538Z,-2.20
2022-12-13T07:38:07.509Z,-2.20
2022-12-13T07:40:36.643Z,-2.20
2022-12-13T07:43:04.921Z,-2.20
2022-12-13T07:45:32.861Z,-2.20
2022-12-13T07:48:05.545Z,-2.10
2022-12-13T07:50:36.801Z,-2.12
2022-12-13T07:53:07.451Z,-2.10
2022-12-13T07:55:35.474Z,-2.10
2022-12-13T07:58:21.565Z,-2.04
2022-12-13T08:00:49.531Z,-2.00
2022-12-13T08:03:25.587Z,-2.00
2022-12-13T08:06:06.661Z,-1.90
2022-12-13T08:08:34.518Z,-1.90
2022-12-13T08:11:04.754Z,-1.90
2022-12-13T08:13:33.098Z,-1.86
2022-12-13T08:16:03.453Z,-1.84
2022-12-13T08:18:31.970Z,-1.80
2022-12-13T08:21:14.077Z,-1.74
2022-12-13T08:23:53.933Z,-1.80
2022-12-13T08:26:23.485Z,-1.80
2022-12-13T08:28:51.505Z,-1.72
2022-12-13T08:31:19.622Z,-1.70
2022-12-13T08:33:48.683Z,-1.60
2022-12-13T08:36:17.798Z,-1.60
2022-12-13T08:38:45.810Z,-1.50
2022-12-13T08:41:13.906Z,-1.50
2022-12-13T08:43:41.955Z,-1.50
2022-12-13T08:46:09.744Z,-1.42
2022-12-13T08:48:43.792Z,-1.40
2022-12-13T08:51:15.027Z,-1.40
2022-12-13T08:53:52.850Z,-1.40
2022-12-13T08:56:38.749Z,-1.40
2022-12-13T08:59:11.545Z,-1.40
2022-12-13T09:01:39.420Z,-1.40
2022-12-13T09:04:07.225Z,-1.40
2022-12-13T09:06:35.001Z,-1.40
2022-12-13T09:09:03.607Z,-1.30
2022-12-13T09:11:34.813Z,-1.30
2022-12-13T09:14:06.509Z,-1.30
2022-12-13T09:16:41.770Z,-1.30
2022-12-13T09:19:25.484Z,-1.30
2022-12-13T09:22:02.470Z,-1.20
2022-12-13T09:24:35.815Z,-1.10
2022-12-13T09:27:09.490Z,-1.00
2022-12-13T09:29:38.403Z,-0.82
2022-12-13T09:32:06.209Z,-0.80
2022-12-13T09:34:34.073Z,-0.80
2022-12-13T09:37:02.061Z,-0.80
2022-12-13T09:39:29.970Z,-0.80
2022-12-13T09:42:00.596Z,-0.70
2022-12-13T09:44:43.635Z,-0.60
2022-12-13T09:47:23.169Z,-0.50
2022-12-13T09:49:53.980Z,-0.36
2022-12-13T09:52:24.184Z,-0.18
2022-12-13T09:54:57.587Z,-0.10
2022-12-13T09:57:32.260Z,-0.10
2022-12-13T10:00:07.356Z,-0.10
2022-12-13T10:02:58.189Z,0.08
2022-12-13T10:05:39.201Z,0.00
2022-12-13T10:08:13.628Z,-0.10
2022-12-13T10:10:42.377Z,-0.10
2022-12-13T10:13:22.338Z,0.00
2022-12-13T10:16:02.851Z,-0.02
2022-12-13T10:18:39.495Z,-0.10
2022-12-13T10:21:15.410Z,-0.10
2022-12-13T10:24:15.632Z,-0.10
2022-12-13T10:26:37.180Z,-0.18
2022-12-13T10:29:05.900Z,-0.28
2022-12-13T10:31:48.078Z,-0.40
2022-12-13T10:34:25.294Z,-0.38
2022-12-13T10:36:53.249Z,-0.50
2022-12-13T10:39:41.468Z,-0.60
2022-12-13T10:42:22.947Z,-0.50
2022-12-13T10:45:27.151Z,-0.50
2022-12-13T10:47:59.393Z,-0.50
2022-12-13T10:50:30.980Z,-0.42
2022-12-13T10:53:00.210Z,-0.40
2022-12-13T10:55:35.608Z,-0.40
2022-12-13T10:58:07.492Z,-0.40
2022-12-13T11:00:45.157Z,-0.58
2022-12-13T11:03:34.323Z,-0.74
2022-12-13T11:06:15.474Z,-0.84
2022-12-13T11:08:43.254Z,-1.10
2022-12-13T11:11:12.494Z,-1.16
2022-12-13T11:13:54.396Z,-1.16
2022-12-13T11:16:34.183Z,-1.12
2022-12-13T11:19:17.323Z,-1.20
2022-12-13T11:21:48.967Z,-1.20
2022-12-13T11:24:26.518Z,-1.20
2022-12-13T11:27:18.661Z,-1.20
2022-12-13T11:30:00.761Z,-1.20
2022-12-13T11:32:54.738Z,-1.12
2022-12-13T11:35:36.551Z,-1.16
2022-12-13T11:38:33.053Z,-1.20
2022-12-13T11:41:31.647Z,-1.30
2022-12-13T11:44:05.282Z,-1.40
2022-12-13T11:46:42.778Z,-1.50
2022-12-13T11:49:19.104Z,-1.60
2022-12-13T11:51:51.748Z,-1.60
2022-12-13T11:54:46.155Z,-1.70
2022-12-13T11:57:25.436Z,-1.70
2022-12-13T12:00:34.099Z,-1.60
2022-12-13T12:03:45.700Z,-1.60
2022-12-13T12:06:21.526Z,-1.60
2022-12-13T12:08:52.411Z,-1.54
2022-12-13T12:12:02.356Z,-1.50
2022-12-13T12:14:43.510Z,-1.50
2022-12-13T12:17:13.556Z,-1.48
2022-12-13T12:19:46.764Z,-1.40
2022-12-13T12:22:41.058Z,-1.46
2022-12-13T12:25:30.569Z,-1.40
2022-12-13T12:28:23.572Z,-1.50
2022-12-13T12:31:35.977Z,-1.50
2022-12-13T12:34:55.138Z,-1.50
2022-12-13T12:37:49.934Z,-1.50
2022-12-13T12:41:14.051Z,-1.50
2022-12-13T12:43:38.068Z,-1.50
2022-12-13T12:46:52.280Z,-1.50
2022-12-13T12:49:51.137Z,-1.52
2022-12-13T12:52:56.228Z,-1.60
2022-12-13T12:55:37.106Z,-1.60
2022-12-13T12:58:31.032Z,-1.54
2022-12-13T13:01:04.650Z,-1.48
2022-12-13T13:03:34.814Z,-1.50
2022-12-13T13:06:10.950Z,-1.50
2022-12-13T13:09:17.313Z,-1.60
2022-12-13T13:11:57.501Z,-1.60
2022-12-13T13:14:39.745Z,-1.54
2022-12-13T13:17:16.471Z,-1.54
2022-12-13T13:19:48.986Z,-1.58
2022-12-13T13:22:32.511Z,-1.56
2022-12-13T13:25:27.830Z,-1.60
2022-12-13T13:28:15.042Z,-1.60
2022-12-13T13:31:06.513Z,-1.60
2022-12-13T13:33:51.198Z,-1.60
2022-12-13T13:36:42.257Z,-1.70
2022-12-13T13:39:39.099Z,-1.80
2022-12-13T13:42:30.030Z,-1.80
2022-12-13T13:45:22.771Z,-1.80
2022-12-13T13:48:37.189Z,-1.90
2022-12-13T13:51:30.282Z,-1.98
2022-12-13T13:54:13.705Z,-2.04
2022-12-13T13:57:03.129Z,-2.20
2022-12-13T13:59:57.869Z,-2.30
2022-12-13T14:02:57.486Z,-2.40
2022-12-13T14:05:37.841Z,-2.50
2022-12-13T14:08:42.781Z,-2.50
2022-12-13T14:11:31.957Z,-2.50
2022-12-13T14:15:04.062Z,-2.60
2022-12-13T14:18:28.948Z,-2.64
2022-12-13T14:21:09.000Z,-2.70
2022-12-13T14:23:57.648Z,-2.76
2022-12-13T14:27:07.498Z,-2.78
2022-12-13T14:29:48.662Z,-2.80
2022-12-13T14:32:33.018Z,-2.80
2022-12-13T14:35:25.878Z,-2.90
2022-12-13T14:38:06.014Z,-3.00
2022-12-13T14:40:36.751Z,-3.00
2022-12-13T14:43:04.705Z,-3.10
2022-12-13T14:45:37.422Z,-3.10
2022-12-13T14:48:12.240Z,-3.10
2022-12-13T14:50:40.212Z,-3.10
2022-12-13T14:53:30.905Z,-3.10
2022-12-13T14:56:28.425Z,-3.10
2022-12-13T14:58:59.921Z,-3.16
2022-12-13T15:01:34.030Z,-3.20
2022-12-13T15:04:21.225Z,-3.20
2022-12-13T15:06:56.768Z,-3.20
2022-12-13T15:09:24.759Z,-3.20
2022-12-13T15:12:02.890Z,-3.20
2022-12-13T15:14:45.742Z,-3.20
2022-12-13T15:17:34.272Z,-3.20
2022-12-13T15:20:20.274Z,-3.20
2022-12-13T15:22:48.531Z,-3.20
2022-12-13T15:25:22.802Z,-3.18
2022-12-13T15:27:50.753Z,-3.14
2022-12-13T15:30:18.547Z,-3.10
2022-12-13T15:33:17.995Z,-3.10
2022-12-13T15:35:50.827Z,-3.10
2022-12-13T15:38:28.702Z,-3.10
2022-12-13T15:40:57.409Z,-3.12
2022-12-13T15:43:33.454Z,-3.20
2022-12-13T15:46:01.688Z,-3.20
2022-12-13T15:48:33.256Z,-3.20
2022-12-13T15:51:29.396Z,-3.22
2022-12-13T15:54:02.957Z,-3.30
2022-12-13T15:56:37.080Z,-3.30
2022-12-13T15:59:06.114Z,-3.30
2022-12-13T16:01:35.843Z,-3.40
2022-12-13T16:04:04.306Z,-3.40
2022-12-13T16:06:33.246Z,-3.40
2022-12-13T16:09:03.967Z,-3.40
2022-12-13T16:11:48.471Z,-3.40
2022-12-13T16:14:30.624Z,-3.40
2022-12-13T16:17:11.341Z,-3.38
2022-12-13T16:19:39.936Z,-3.30
2022-12-13T16:22:09.140Z,-3.30
2022-12-13T16:24:37.383Z,-3.34
2022-12-13T16:27:08.318Z,-3.40
2022-12-13T16:29:36.925Z,-3.40
2022-12-13T16:32:09.050Z,-3.40
2022-12-13T16:34:37.968Z,-3.40
2022-12-13T16:37:08.659Z,-3.40
2022-12-13T16:39:53.723Z,-3.42
2022-12-13T16:42:26.336Z,-3.50
2022-12-13T16:45:17.717Z,-3.50
2022-12-13T16:47:49.178Z,-3.50
2022-12-13T16:50:19.931Z,-3.50
2022-12-13T16:52:49.035Z,-3.60
2022-12-13T16:55:17.061Z,-3.60
2022-12-13T16:57:56.647Z,-3.60
2022-12-13T17:00:26.757Z,-3.60
2022-12-13T17:02:54.849Z,-3.60
2022-12-13T17:05:24.127Z,-3.60
2022-12-13T17:07:52.124Z,-3.60
2022-12-13T17:10:20.208Z,-3.60
2022-12-13T17:12:48.100Z,-3.60
2022-12-13T17:15:16.686Z,-3.60
2022-12-13T17:17:45.408Z,-3.56
2022-12-13T17:20:17.008Z,-3.50
2022-12-13T17:22:45.331Z,-3.50
2022-12-13T17:25:13.215Z,-3.50
2022-12-13T17:27:41.406Z,-3.50
2022-12-13T17:30:13.872Z,-3.42
2022-12-13T17:32:41.724Z,-3.40
2022-12-13T17:35:16.238Z,-3.40
2022-12-13T17:37:46.166Z,-3.40
2022-12-13T17:40:13.961Z,-3.40
2022-12-13T17:42:41.747Z,-3.40
2022-12-13T17:45:10.263Z,-3.40
2022-12-13T17:47:39.844Z,-3.30
2022-12-13T17:50:09.784Z,-3.30
2022-12-13T17:52:39.048Z,-3.30
2022-12-13T17:55:07.711Z,-3.30
2022-12-13T17:57:35.960Z,-3.30
2022-12-13T18:00:04.526Z,-3.30
2022-12-13T18:02:40.596Z,-3.30
2022-12-13T18:05:17.623Z,-3.30
2022-12-13T18:07:50.808Z,-3.30
2022-12-13T18:10:20.237Z,-3.30
2022-12-13T18:12:50.434Z,-3.28
2022-12-13T18:15:19.325Z,-3.26
2022-12-13T18:18:10.667Z,-3.20
2022-12-13T18:20:36.558Z,-3.20
2022-12-13T18:23:05.333Z,-3.20
2022-12-13T18:25:33.266Z,-3.20
2022-12-13T18:28:03.331Z,-3.20
2022-12-13T18:30:32.418Z,-3.22
2022-12-13T18:33:01.202Z,-3.20
2022-12-13T18:35:31.172Z,-3.28
2022-12-13T18:38:00.679Z,-3.30
2022-12-13T18:40:28.762Z,-3.30
2022-12-13T18:42:57.020Z,-3.30
2022-12-13T18:45:26.179Z,-3.30
2022-12-13T18:47:55.833Z,-3.38
2022-12-13T18:50:23.741Z,-3.40
2022-12-13T18:52:52.116Z,-3.40
2022-12-13T18:55:20.592Z,-3.40
2022-12-13T18:57:51.586Z,-3.40
2022-12-13T19:00:19.909Z,-3.42
2022-12-13T19:02:47.820Z,-3.42
2022-12-13T19:05:16.884Z,-3.42
2022-12-13T19:07:44.810Z,-3.40
2022-12-13T19:10:12.965Z,-3.44
2022-12-13T19:12:41.239Z,-3.48
2022-12-13T19:15:10.543Z,-3.46
2022-12-13T19:17:38.653Z,-3.44
2022-12-13T19:20:07.887Z,-3.42
2022-12-13T19:22:37.764Z,-3.44
2022-12-13T19:25:06.790Z,-3.50
2022-12-13T19:27:34.691Z,-3.50
2022-12-13T19:30:05.396Z,-3.50
2022-12-13T19:32:33.878Z,-3.50
2022-12-13T19:35:01.814Z,-3.50
2022-12-13T19:37:29.968Z,-3.50
2022-12-13T19:39:58.108Z,-3.50
2022-12-13T19:42:26.495Z,-3.50
2022-12-13T19:44:54.302Z,-3.50
2022-12-13T19:47:23.141Z,-3.50
2022-12-13T19:49:51.310Z,-3.50
2022-12-13T19:52:20.614Z,-3.50
2022-12-13T19:54:48.509Z,-3.52
2022-12-13T19:57:16.779Z,-3.60
2022-12-13T19:59:44.717Z,-3.60
2022-12-13T20:02:14.646Z,-3.56
2022-12-13T20:04:47.161Z,-3.60
2022-12-13T20:07:15.167Z,-3.60
2022-12-13T20:09:44.089Z,-3.60
2022-12-13T20:12:13.185Z,-3.60
2022-12-13T20:14:41.119Z,-3.60
2022-12-13T20:17:11.125Z,-3.60
2022-12-13T20:19:40.769Z,-3.60
2022-12-13T20:22:08.836Z,-3.50
2022-12-13T20:24:37.226Z,-3.50
2022-12-13T20:27:05.213Z,-3.50
2022-12-13T20:29:33.153Z,-3.50
2022-12-13T20:32:01.141Z,-3.50
2022-12-13T20:34:30.187Z,-3.58
2022-12-13T20:36:58.177Z,-3.56
2022-12-13T20:39:26.763Z,-3.50
2022-12-13T20:41:56.008Z,-3.50
2022-12-13T20:44:23.966Z,-3.50
2022-12-13T20:46:51.977Z,-3.56
2022-12-13T20:49:22.611Z,-3.56
2022-12-13T20:51:52.845Z,-3.54
2022-12-13T20:54:21.009Z,-3.60
2022-12-13T20:56:50.318Z,-3.58
2022-12-13T20:59:19.033Z,-3.60
2022-12-13T21:01:48.828Z,-3.60
2022-12-13T21:04:17.917Z,-3.60
2022-12-13T21:06:46.338Z,-3.60
2022-12-13T21:09:14.752Z,-3.60
2022-12-13T21:11:45.436Z,-3.60
2022-12-13T21:14:30.163Z,-3.60
2022-12-13T21:17:00.186Z,-3.60
2022-12-13T21:19:49.658Z,-3.60
2022-12-13T21:22:17.668Z,-3.60
2022-12-13T21:24:45.787Z,-3.68
2022-12-13T21:27:14.144Z,-3.70
2022-12-13T21:29:41.959Z,-3.70
2022-12-13T21:32:09.894Z,-3.70
2022-12-13T21:34:37.787Z,-3.70
2022-12-13T21:37:05.830Z,-3.70
2022-12-13T21:39:33.672Z,-3.70
2022-12-13T21:42:05.032Z,-3.80
2022-12-13T21:44:33.661Z,-3.80
2022-12-13T21:47:16.865Z,-3.80
2022-12-13T21:49:48.540Z,-3.88
2022-12-13T21:52:17.936Z,-3.90
2022-12-13T21:54:45.868Z,-3.90
2022-12-13T21:57:32.936Z,-3.92
2022-12-13T22:00:00.859Z,-4.00
2022-12-13T22:02:28.777Z,-4.00
2022-12-13T22:04:58.145Z,-4.00
2022-12-13T22:07:28.189Z,-4.00
2022-12-13T22:09:56.252Z,-4.02
2022-12-13T22:12:35.741Z,-4.10
2022-12-13T22:15:05.898Z,-4.10
2022-12-13T22:17:36.191Z,-4.10
2022-12-13T22:20:06.539Z,-4.12
2022-12-13T22:22:34.557Z,-4.18
2022-12-13T22:25:03.176Z,-4.20
2022-12-13T22:27:30.922Z,-4.20
2022-12-13T22:29:59.034Z,-4.20
2022-12-13T22:32:31.409Z,-4.22
2022-12-13T22:34:59.951Z,-4.22
2022-12-13T22:37:27.771Z,-4.30
2022-12-13T22:39:55.568Z,-4.30
2022-12-13T22:42:23.378Z,-4.30
2022-12-13T22:44:51.105Z,-4.30
2022-12-13T22:47:18.906Z,-4.30
2022-12-13T22:49:48.905Z,-4.32
2022-12-13T22:52:17.440Z,-4.34
2022-12-13T22:54:45.170Z,-4.36
2022-12-13T22:57:12.967Z,-4.40
2022-12-13T22:59:40.674Z,-4.42
2022-12-13T23:02:09.992Z,-4.44
2022-12-13T23:04:39.008Z,-4.50
2022-12-13T23:07:06.870Z,-4.50
2022-12-13T23:09:34.686Z,-4.50
2022-12-13T23:12:21.416Z,-4.50
2022-12-13T23:14:49.229Z,-4.60
2022-12-13T23:17:16.967Z,-4.60
2022-12-13T23:19:50.348Z,-4.60
2022-12-13T23:22:22.607Z,-4.60
2022-12-13T23:24:52.149Z,-4.60
2022-12-13T23:27:21.685Z,-4.70
2022-12-13T23:29:49.933Z,-4.70
2022-12-13T23:32:17.727Z,-4.68
2022-12-13T23:34:45.562Z,-4.60
2022-12-13T23:37:14.531Z,-4.60
2022-12-13T23:39:42.320Z,-4.60
2022-12-13T23:42:10.111Z,-4.60
2022-12-13T23:44:38.510Z,-4.60
2022-12-13T23:47:06.295Z,-4.60
2022-12-13T23:49:34.089Z,-4.60
2022-12-13T23:52:03.067Z,-4.60
2022-12-13T23:54:30.809Z,-4.64
2022-12-13T23:56:58.975Z,-4.70
2022-12-13T23:59:27.498Z,-4.74
